Time;durP1;ratioP1;P1;durP2;ratioP2;P2;SDS_P1;SDS_P2;PMS_P1;PMS_P2;Temp;Humidity;BMP_temperature;BMP_pressure;BME280_temperature;BME280_humidity;BME280_pressure;Samples;Min_cycle;Max_cycle;Signal;HPM_P1;HPM_P2
2022/02/02 00:04:09;;;;;;;41.78;17.42;;;77.40;2227.20;;;;;;4911175;29;20039;-75
2022/02/02 00:06:43;;;;;;;45.63;17.90;;;77.40;2227.20;;;;;;4910781;29;20119;-81
2022/02/02 00:09:13;;;;;;;34.88;16.38;;;77.30;2227.20;;;;;;4894021;29;20056;-77
2022/02/02 00:16:59;;;;;;;38.03;12.70;;;77.20;2227.20;;;;;;4909694;29;20403;-79
2022/02/02 00:19:46;;;;;;;33.17;13.80;;;77.30;2227.20;;;;;;4910833;29;20083;-78
2022/02/02 00:22:19;;;;;;;32.38;13.55;;;77.40;2227.20;;;;;;4909550;29;20062;-81
2022/02/02 00:27:13;;;;;;;34.10;14.82;;;77.30;2227.20;;;;;;4909311;29;20604;-81
2022/02/02 00:29:45;;;;;;;31.17;12.65;;;77.20;2227.20;;;;;;4909376;29;20484;-75
2022/02/02 00:34:54;;;;;;;33.05;12.57;;;76.80;2227.20;;;;;;4910728;29;20036;-79
2022/02/02 00:37:20;;;;;;;22.40;12.30;;;52.10;2227.20;;;;;;4909176;29;20016;-80
2022/02/02 00:39:46;;;;;;;;;;;52.10;2227.20;;;;;;4906302;29;20059;-81
2022/02/02 00:42:12;;;;;;;31.88;12.82;;;76.80;2227.20;;;;;;4908088;29;19915;-81
2022/02/02 00:44:42;;;;;;;35.47;13.82;;;52.10;2227.20;;;;;;4907661;29;20465;-81
2022/02/02 00:47:09;;;;;;;33.60;16.40;;;52.10;2227.20;;;;;;4910538;29;20123;-81
2022/02/02 00:49:36;;;;;;;33.05;13.63;;;52.10;2227.20;;;;;;4910033;29;20060;-81
2022/02/02 00:52:02;;;;;;;29.52;13.80;;;52.10;2227.20;;;;;;4906956;29;20128;-80
2022/02/02 00:54:29;;;;;;;30.55;14.35;;;76.80;2227.20;;;;;;4908593;29;20059;-81
2022/02/02 00:56:55;;;;;;;26.67;12.50;;;76.90;2227.20;;;;;;4908469;29;20466;-77
2022/02/02 00:59:22;;;;;;;32.55;13.60;;;76.90;2227.20;;;;;;4890038;29;20103;-82
2022/02/02 01:01:48;;;;;;;46.85;16.23;;;77.00;2227.20;;;;;;4908403;29;20012;-78
2022/02/02 01:04:14;;;;;;;;;;;77.10;2227.20;;;;;;4908554;29;20096;-79
2022/02/02 01:06:46;;;;;;;44.75;17.83;;;77.20;2227.20;;;;;;4907291;29;19955;-80
2022/02/02 01:09:22;;;;;;;42.83;18.38;;;77.30;2227.20;;;;;;4907505;29;20041;-81
2022/02/02 01:12:08;;;;;;;39.33;16.30;;;77.00;2227.20;;;;;;4894353;29;20539;-81
2022/02/02 01:28:01;;;;;;;34.33;15.90;;;77.20;2227.20;;;;;;4908221;29;20127;-80
2022/02/02 01:30:27;;;;;;;;;;;77.20;2227.20;;;;;;4906243;29;20085;-81
2022/02/02 01:32:53;;;;;;;34.15;15.90;;;77.20;2227.20;;;;;;4907294;29;19907;-81
2022/02/02 01:35:19;;;;;;;;;;;77.20;2227.20;;;;;;4907518;29;20032;-81
2022/02/02 01:37:47;;;;;;;51.95;21.30;;;77.20;2227.20;;;;;;4905651;29;19911;-80
2022/02/02 01:40:39;;;;;;;40.85;19.52;;;77.10;2227.20;;;;;;4890014;29;20056;-80
2022/02/02 01:43:08;;;;;;;36.38;18.55;;;77.20;2227.20;;;;;;4907551;29;20076;-78
2022/02/02 01:45:45;;;;;;;38.95;18.63;;;77.20;2227.20;;;;;;4891424;29;20055;-81
2022/02/02 01:56:08;;;;;;;39.50;15.00;;;77.20;2227.20;;;;;;4907842;29;20448;-77
2022/02/02 02:01:19;;;;;;;36.92;15.63;;;77.20;2227.20;;;;;;4910030;29;20043;-81
2022/02/02 02:03:45;;;;;;;;;;;77.00;2227.20;;;;;;4908498;29;20032;-80
2022/02/02 02:06:11;;;;;;;33.92;14.75;;;76.80;2227.20;;;;;;4891043;29;19908;-81
2022/02/02 02:08:38;;;;;;;;;;;76.90;2227.20;;;;;;4907559;29;20095;-81
2022/02/02 02:11:07;;;;;;;;;;;76.90;2227.20;;;;;;4908748;29;19915;-77
2022/02/02 02:16:21;;;;;;;35.35;15.40;;;76.90;2227.20;;;;;;4908347;29;20424;-80
2022/02/02 02:18:47;;;;;;;33.58;15.18;;;76.90;2227.20;;;;;;4907552;29;20020;-76
2022/02/02 02:21:16;;;;;;;;;;;77.00;2227.20;;;;;;4891352;29;20027;-80
2022/02/02 02:23:44;;;;;;;32.88;15.52;;;77.10;2227.20;;;;;;4907927;29;20245;-76
2022/02/02 02:26:20;;;;;;;45.30;18.33;;;77.10;2227.20;;;;;;4906152;29;20036;-80
2022/02/02 02:31:43;;;;;;;53.08;22.70;;;77.20;2227.20;;;;;;4907723;29;20111;-81
2022/02/02 02:39:32;;;;;;;46.28;21.50;;;77.10;2227.20;;;;;;4906605;29;20480;-81
2022/02/02 03:55:04;;;;;;;63.78;28.75;;;77.20;2227.20;;;;;;4907782;29;20092;-80
2022/02/02 04:07:54;;;;;;;65.07;26.90;;;77.30;2227.20;;;;;;4907661;29;20068;-77
2022/02/02 04:10:20;;;;;;;53.78;24.30;;;77.40;2227.20;;;;;;4892194;29;20429;-78
2022/02/02 04:12:54;;;;;;;55.92;24.13;;;77.40;2227.20;;;;;;4909697;29;20024;-80
2022/02/02 05:01:43;;;;;;;27.55;13.18;;;76.90;2227.20;;;;;;4908706;29;20084;-79
2022/02/02 05:06:25;;;;;;;31.20;14.15;;;77.00;2227.20;;;;;;4908803;29;20107;-76
2022/02/02 05:17:05;;;;;;;38.63;15.70;;;77.30;2227.20;;;;;;4910883;29;20569;-79
2022/02/02 05:54:06;;;;;;;48.13;20.17;;;77.50;2227.20;;;;;;4839990;29;20041;-76
2022/02/02 05:56:40;;;;;;;39.60;19.33;;;77.40;2227.20;;;;;;4840000;29;20070;-79
2022/02/02 05:59:09;;;;;;;42.78;18.55;;;77.50;2227.20;;;;;;4837960;29;20041;-76
2022/02/02 06:01:36;;;;;;;40.28;19.73;;;77.50;2227.20;;;;;;4840229;29;20036;-80
2022/02/02 06:04:08;;;;;;;40.35;19.15;;;77.40;2227.20;;;;;;4837540;29;20038;-79
2022/02/02 06:06:34;;;;;;;38.78;19.90;;;77.50;2227.20;;;;;;4839822;29;20094;-79
2022/02/02 06:09:00;;;;;;;40.08;21.08;;;77.40;2227.20;;;;;;4839799;29;20050;-80
2022/02/02 06:11:27;;;;;;;33.10;18.67;;;77.40;2227.20;;;;;;4839550;29;20044;-78
2022/02/02 06:13:56;;;;;;;37.92;19.38;;;77.40;2227.20;;;;;;4839952;29;20041;-77
2022/02/02 06:16:24;;;;;;;50.50;19.45;;;77.40;2227.20;;;;;;4837068;29;20027;-76
2022/02/02 06:18:55;;;;;;;68.35;24.83;;;77.40;2227.20;;;;;;4824713;29;20034;-78
2022/02/02 06:21:32;;;;;;;121.43;36.35;;;77.20;2227.20;;;;;;4839824;29;20045;-78
2022/02/02 06:24:18;;;;;;;113.35;34.47;;;76.90;2227.20;;;;;;4839387;29;20348;-77
2022/02/02 06:26:48;;;;;;;103.05;33.30;;;76.90;2227.20;;;;;;4841044;29;20066;-77
2022/02/02 06:29:15;;;;;;;50.13;20.88;;;77.10;2227.20;;;;;;4843205;29;20514;-79
2022/02/02 06:31:43;;;;;;;49.97;19.30;;;77.20;2227.20;;;;;;4884308;29;20031;-79
2022/02/02 06:34:12;;;;;;;35.97;17.88;;;77.30;2227.20;;;;;;4910533;29;20482;-79
2022/02/02 06:36:39;;;;;;;34.78;18.27;;;77.40;2227.20;;;;;;4909465;29;20500;-77
2022/02/02 06:39:07;;;;;;;38.88;19.42;;;77.40;2227.20;;;;;;4911068;29;20055;-78
2022/02/02 06:41:33;;;;;;;49.90;21.77;;;77.40;2227.20;;;;;;4894043;29;20048;-77
2022/02/02 06:43:59;;;;;;;47.70;22.42;;;77.40;2227.20;;;;;;4909361;29;20025;-80
2022/02/02 06:46:29;;;;;;;;;;;77.40;2227.20;;;;;;4911300;29;20099;-80
2022/02/02 06:48:55;;;;;;;68.93;25.88;;;77.20;2227.20;;;;;;4908618;29;19929;-78
2022/02/02 06:51:34;;;;;;;67.93;25.88;;;77.00;2227.20;;;;;;4910256;29;20024;-78
2022/02/02 06:54:20;;;;;;;53.72;23.42;;;76.90;2227.20;;;;;;4908951;29;20084;-77
2022/02/02 06:56:59;;;;;;;57.72;24.90;;;76.80;2227.20;;;;;;4911880;29;20029;-76
2022/02/02 06:59:47;;;;;;;55.13;27.58;;;77.00;2227.20;;;;;;4910879;29;20020;-75
2022/02/02 07:07:48;;;;;;;57.15;24.80;;;76.90;2227.20;;;;;;4919297;29;20036;-78
2022/02/02 07:13:49;;;;;;;60.35;26.42;;;76.90;2227.20;;;;;;4919167;29;20061;-75
2022/02/02 07:21:48;;;;;;;51.63;21.60;;;51.90;2227.20;;;;;;4910302;29;20036;-77
2022/02/02 07:35:03;;;;;;;56.83;24.35;;;77.10;2227.20;;;;;;4879725;29;20075;-82
2022/02/02 07:37:36;;;;;;;45.67;22.10;;;77.20;2227.20;;;;;;4878823;29;20100;-80
2022/02/02 07:40:09;;;;;;;51.70;22.33;;;77.20;2227.20;;;;;;4872551;29;20472;-78
2022/02/02 07:42:45;;;;;;;44.22;20.90;;;77.20;2227.20;;;;;;4860961;29;20506;-82
2022/02/02 07:45:12;;;;;;;44.53;22.83;;;77.20;2227.20;;;;;;4866444;29;20459;-86
2022/02/02 07:47:47;;;;;;;42.95;21.55;;;77.40;2227.20;;;;;;4861050;29;20037;-83
2022/02/02 07:50:13;;;;;;;69.80;32.97;;;77.40;2227.20;;;;;;4861113;29;20567;-75
2022/02/02 07:52:41;;;;;;;;;;;77.50;2227.20;;;;;;4861323;29;20040;-75
2022/02/02 07:55:09;;;;;;;61.40;27.60;;;77.60;2227.20;;;;;;4860952;29;19946;-77
2022/02/02 07:57:36;;;;;;;45.55;22.48;;;77.60;2227.20;;;;;;4862772;29;20044;-77
2022/02/02 08:00:06;;;;;;;38.78;18.73;;;77.30;2227.20;;;;;;4878897;29;20037;-79
2022/02/02 08:05:02;;;;;;;57.58;28.02;;;77.40;2227.20;;;;;;4878938;29;20059;-81
2022/02/02 08:07:34;;;;;;;63.00;27.67;;;77.60;2227.20;;;;;;4870011;29;20581;-76
2022/02/02 08:12:42;;;;;;;37.75;18.25;;;77.50;2227.20;;;;;;4899545;29;20031;-79
2022/02/02 08:15:09;;;;;;;29.02;15.07;;;77.50;2227.20;;;;;;4882706;29;20470;-79
2022/02/02 08:17:35;;;;;;;35.03;17.13;;;77.40;2227.20;;;;;;4899607;29;20072;-81
2022/02/02 08:20:01;;;;;;;36.78;17.50;;;77.50;2227.20;;;;;;4899825;29;20465;-76
2022/02/02 08:22:29;;;;;;;;;;;77.40;2227.20;;;;;;4899418;29;20032;-76
2022/02/02 08:24:56;;;;;;;36.67;18.75;;;77.30;2227.20;;;;;;4899174;29;19907;-77
2022/02/02 08:27:22;;;;;;;42.45;18.92;;;77.30;2227.20;;;;;;4882570;29;20385;-78
2022/02/02 08:29:48;;;;;;;;;;;77.30;2227.20;;;;;;4882835;29;20107;-78
2022/02/02 08:32:15;;;;;;;43.57;14.67;;;77.30;2227.20;;;;;;4899253;29;19907;-78
2022/02/02 08:34:48;;;;;;;40.95;20.05;;;77.20;2227.20;;;;;;4899046;29;20862;-76
2022/02/02 08:37:14;;;;;;;40.08;20.58;;;77.20;2227.20;;;;;;4898921;29;20389;-75
2022/02/02 08:40:18;;;;;;;43.55;21.40;;;77.30;2227.20;;;;;;4898652;29;20053;-76
2022/02/02 08:42:30;;;;;;;63.38;29.75;;;77.40;2227.20;;;;;;4898547;29;20037;-77
2022/02/02 08:45:32;;;;;;;54.92;30.17;;;77.50;2227.20;;;;;;4897449;29;20093;-78
2022/02/02 08:47:56;;;;;;;54.90;26.95;;;77.60;2227.20;;;;;;4894615;29;20047;-76
2022/02/02 08:50:29;;;;;;;50.75;24.05;;;77.50;2227.20;;;;;;4881796;29;20116;-76
2022/02/02 08:53:00;;;;;;;109.68;48.03;;;77.50;2227.20;;;;;;4882107;29;20025;-76
2022/02/02 08:55:54;;;;;;;73.85;31.60;;;77.70;2227.20;;;;;;4898780;29;20032;-76
2022/02/02 08:58:21;;;;;;;43.55;20.52;;;77.70;2227.20;;;;;;4898427;29;20497;-75
2022/02/02 09:00:49;;;;;;;37.60;17.58;;;77.60;2227.20;;;;;;4898701;29;20029;-80
2022/02/02 09:05:59;;;;;;;60.28;27.77;;;77.60;2227.20;;;;;;4896236;29;20533;-76
2022/02/02 09:08:29;;;;;;;44.00;20.08;;;77.40;2227.20;;;;;;4897222;29;20126;-79
2022/02/02 09:24:29;;;;;;;47.35;24.85;;;102.70;2227.20;;;;;;4898294;29;20039;-83
2022/02/02 09:35:02;;;;;;;41.00;17.60;;;102.90;2227.20;;;;;;4898085;29;20032;-81
2022/02/02 09:37:28;;;;;;;37.30;18.27;;;102.80;2227.20;;;;;;4895376;29;20041;-83
2022/02/02 09:42:40;;;;;;;33.85;16.35;;;103.00;2227.20;;;;;;4856037;29;20471;-83
2022/02/02 09:45:11;;;;;;;33.72;16.95;;;103.10;2227.20;;;;;;4859144;29;20042;-81
2022/02/02 09:47:44;;;;;;;38.00;16.88;;;103.20;2227.20;;;;;;4858654;29;20040;-75
2022/02/02 09:50:20;;;;;;;37.45;18.48;;;103.30;2227.20;;;;;;4849923;29;20065;-75
2022/02/02 09:52:53;;;;;;;31.07;15.33;;;103.30;2227.20;;;;;;4849131;29;20030;-83
2022/02/02 09:55:45;;;;;;;40.13;19.70;;;103.10;2227.20;;;;;;4847411;29;20305;-76
2022/02/02 10:00:49;;;;;;;44.72;22.40;;;103.30;2227.20;;;;;;4842867;29;20077;-77
2022/02/02 10:06:20;;;;;;;44.28;22.05;;;103.30;2227.20;;;;;;4855893;29;20034;-83
2022/02/02 10:16:46;;;;;;;45.28;20.35;;;128.10;2252.80;;;;;;4859182;29;20029;-75
2022/02/02 10:19:20;;;;;;;35.15;15.63;;;128.10;2252.80;;;;;;4874783;29;20044;-76
2022/02/02 10:21:47;;;;;;;32.13;19.13;;;128.20;2252.80;;;;;;4916772;29;20036;-86
2022/02/02 10:24:13;;;;;;;25.55;14.60;;;128.10;2252.80;;;;;;4916980;29;20028;-82
2022/02/02 10:26:47;;;;;;;;;;;128.10;2252.80;;;;;;4917319;29;20088;-75
2022/02/02 10:29:16;;;;;;;37.60;16.60;;;128.10;2252.80;;;;;;4916704;29;19919;-79
2022/02/02 10:31:50;;;;;;;37.53;17.42;;;128.10;2252.80;;;;;;4916609;29;20035;-76
2022/02/02 10:34:19;;;;;;;30.98;15.15;;;128.20;2252.80;;;;;;4916608;29;20096;-75
2022/02/02 10:36:46;;;;;;;34.85;15.63;;;128.20;2252.80;;;;;;4916639;29;20450;-77
2022/02/02 10:39:16;;;;;;;36.83;20.02;;;128.20;2252.80;;;;;;4916151;29;20072;-78
2022/02/02 10:44:23;;;;;;;31.90;15.82;;;128.30;2252.80;;;;;;4916530;29;20397;-77
2022/02/02 10:47:01;;;;;;;22.77;12.15;;;128.40;2252.80;;;;;;4916431;29;20099;-78
2022/02/02 10:52:07;;;;;;;31.17;14.52;;;128.50;2252.80;;;;;;4904898;29;20083;-83
2022/02/02 10:57:29;;;;;;;25.58;13.93;;;128.70;2252.80;;;;;;4905786;29;20029;-81
2022/02/02 11:07:55;;;;;;;22.75;12.05;;;128.70;2252.80;;;;;;4906993;29;20039;-78
2022/02/02 11:10:24;;;;;;;27.25;12.75;;;128.80;2252.80;;;;;;4904821;29;20041;-75
2022/02/02 11:12:52;;;;;;;23.95;13.35;;;128.80;2252.80;;;;;;4910915;29;20035;-84
2022/02/02 11:15:27;;;;;;;22.60;11.85;;;128.90;2252.80;;;;;;4911323;29;20040;-77
2022/02/02 11:17:58;;;;;;;28.85;14.60;;;128.90;2252.80;;;;;;4910893;29;20103;-83
2022/02/02 11:20:24;;;;;;;21.75;11.20;;;153.70;2252.80;;;;;;4910838;29;20028;-82
2022/02/02 11:22:51;;;;;;;;;;;153.80;2252.80;;;;;;4908921;29;20381;-76
2022/02/02 11:25:23;;;;;;;17.50;8.13;;;153.80;2252.80;;;;;;4892740;29;19908;-75
2022/02/02 11:27:57;;;;;;;20.98;8.88;;;153.80;2252.80;;;;;;4908122;29;20096;-79
2022/02/02 11:30:23;;;;;;;15.77;9.10;;;154.00;2252.80;;;;;;4891185;29;20028;-79
2022/02/02 11:32:57;;;;;;;19.75;10.25;;;154.00;2252.80;;;;;;4919132;29;20058;-79
2022/02/02 11:35:43;;;;;;;19.50;9.95;;;154.10;2252.80;;;;;;4919607;29;20036;-81
2022/02/02 11:38:19;;;;;;;22.37;10.10;;;154.00;2252.80;;;;;;4919309;29;20061;-84
2022/02/02 11:41:11;;;;;;;24.35;10.55;;;154.00;2252.80;;;;;;4902665;29;20283;-83
2022/02/02 11:46:46;;;;;;;21.20;11.13;;;154.20;2252.80;;;;;;4919426;29;20096;-81
2022/02/02 11:49:19;;;;;;;23.38;10.70;;;154.30;2252.80;;;;;;4919012;29;20036;-76
2022/02/02 11:51:57;;;;;;;21.00;10.52;;;154.40;2252.80;;;;;;4902311;29;20024;-78
2022/02/02 11:54:32;;;;;;;24.67;13.35;;;154.40;2252.80;;;;;;4918825;29;20044;-75
2022/02/02 11:56:59;;;;;;;26.33;15.35;;;154.50;2252.80;;;;;;4919153;29;20491;-76
2022/02/02 12:02:30;;;;;;;20.58;10.98;;;179.20;2252.80;;;;;;4918742;29;20020;-80
2022/02/02 12:05:07;;;;;;;16.67;8.95;;;179.20;2252.80;;;;;;4909869;29;20035;-80
2022/02/02 12:08:48;;;;;;;20.33;10.18;;;179.30;2252.80;;;;;;4909306;29;20035;-74
2022/02/02 12:44:50;;;;;;;;;;;180.00;2252.80;;;;;;4823835;29;20114;-79
2022/02/02 12:57:21;;;;;;;19.55;8.55;;;205.60;2252.80;;;;;;4899165;29;20477;-75
2022/02/02 13:02:13;;;;;;;;;;;205.40;2252.80;;;;;;4899221;29;20025;-80
2022/02/02 13:04:42;;;;;;;14.75;7.55;;;205.40;2252.80;;;;;;4898809;29;19911;-78
2022/02/02 13:07:13;;;;;;;16.52;8.20;;;205.40;2252.80;;;;;;4898544;29;20051;-75
2022/02/02 13:09:41;;;;;;;18.58;8.50;;;205.30;2252.80;;;;;;4898592;29;20528;-80
2022/02/02 13:12:28;;;;;;;15.57;9.05;;;205.40;2252.80;;;;;;4898304;29;20125;-77
2022/02/02 13:17:28;;;;;;;15.70;7.60;;;205.70;2252.80;;;;;;4896139;29;20036;-78
2022/02/02 13:20:02;;;;;;;16.70;8.32;;;230.40;2252.80;;;;;;4880820;29;20029;-78
2022/02/02 13:22:30;;;;;;;20.05;10.27;;;230.40;2252.80;;;;;;4895886;29;20386;-76
2022/02/02 13:24:56;;;;;;;16.45;8.25;;;230.40;2252.80;;;;;;4897596;29;20016;-78
2022/02/02 13:27:22;;;;;;;;;;;230.40;2252.80;;;;;;4897873;29;20358;-78
2022/02/02 13:29:52;;;;;;;12.15;7.10;;;230.40;2252.80;;;;;;4897787;29;19915;-79
2022/02/02 13:35:27;;;;;;;13.40;7.07;;;205.70;2252.80;;;;;;4838430;29;20037;-75
2022/02/02 13:38:16;;;;;;;17.98;8.27;;;205.70;2252.80;;;;;;4838991;29;20052;-74
2022/02/02 13:54:13;;;;;;;14.38;6.70;;;205.70;2252.80;;;;;;4858905;29;20109;-73
2022/02/02 14:02:18;;;;;;;17.55;8.15;;;230.40;2252.80;;;;;;4858217;29;20093;-78
2022/02/02 14:31:10;;;;;;;18.65;10.38;;;205.50;2252.80;;;;;;4908130;29;20031;-75
2022/02/02 14:33:45;;;;;;;17.95;10.18;;;205.50;2252.80;;;;;;4897446;29;20025;-83
2022/02/02 14:36:16;;;;;;;33.67;14.95;;;205.50;2252.80;;;;;;4897962;29;20025;-83
2022/02/02 14:38:50;;;;;;;44.78;20.75;;;205.40;2252.80;;;;;;4897060;29;20063;-75
2022/02/02 14:47:12;;;;;;;13.90;6.28;;;205.10;2252.80;;;;;;4841431;29;20123;-81
2022/02/02 14:55:33;;;;;;;13.63;6.53;;;204.80;2252.80;;;;;;4842592;29;20037;-79
2022/02/02 15:27:40;;;;;;;14.07;5.72;;;204.90;2252.80;;;;;;4859858;29;20056;-79
2022/02/02 15:30:30;;;;;;;9.55;4.70;;;205.00;2252.80;;;;;;4860927;29;20041;-75
2022/02/02 15:32:58;;;;;;;13.52;6.10;;;204.90;2252.80;;;;;;4859524;29;20084;-80
2022/02/02 15:35:26;;;;;;;14.38;7.63;;;204.90;2252.80;;;;;;4860516;29;20463;-79
2022/02/02 15:38:16;;;;;;;13.95;8.18;;;204.90;2252.80;;;;;;4845041;29;20026;-79
2022/02/02 15:40:58;;;;;;;27.08;16.10;;;204.90;2252.80;;;;;;4890240;29;20107;-82
2022/02/02 16:02:12;;;;;;;16.10;8.20;;;179.70;2252.80;;;;;;4891570;29;20043;-80
2022/02/02 16:04:39;;;;;;;23.80;12.38;;;179.70;2252.80;;;;;;4882698;29;20037;-75
2022/02/02 16:07:08;;;;;;;21.20;10.45;;;179.60;2252.80;;;;;;4897776;29;20028;-77
2022/02/02 16:09:49;;;;;;;30.23;14.10;;;179.60;2252.80;;;;;;4897952;29;20132;-78
2022/02/02 16:14:46;;;;;;;16.27;9.30;;;179.70;2252.80;;;;;;4899067;29;20036;-77
2022/02/02 16:37:25;;;;;;;;;;;179.80;2252.80;;;;;;4879136;29;20054;-75
2022/02/02 16:39:21;;;;;;;15.68;6.78;;;179.80;2252.80;;;;;;4876117;29;19978;-76
2022/02/02 16:44:30;;;;;;;17.70;7.68;;;179.50;2252.80;;;;;;4889774;29;20048;-82
2022/02/02 16:46:57;;;;;;;;;;;179.40;2252.80;;;;;;4889991;29;20025;-80
2022/02/02 16:49:23;;;;;;;15.50;6.93;;;179.40;2252.80;;;;;;4886258;29;19916;-75
2022/02/02 16:51:50;;;;;;;12.07;6.03;;;179.40;2252.80;;;;;;4869488;29;20390;-75
2022/02/02 16:54:34;;;;;;;15.50;6.45;;;179.30;2252.80;;;;;;4889966;29;20032;-80
2022/02/02 17:30:05;;;;;;;19.13;8.98;;;154.30;2252.80;;;;;;4841063;29;19924;-82
2022/02/02 17:32:39;;;;;;;21.77;9.95;;;154.30;2252.80;;;;;;4837464;29;20038;-81
2022/02/02 17:35:26;;;;;;;24.25;11.13;;;154.30;2252.80;;;;;;4831794;29;20031;-75
2022/02/02 17:38:19;;;;;;;20.73;10.90;;;154.50;2252.80;;;;;;4839682;29;20029;-83
2022/02/02 17:45:43;;;;;;;27.80;11.02;;;154.50;2252.80;;;;;;4840408;29;19928;-81
2022/02/02 18:20:47;;;;;;;;;;;154.50;2252.80;;;;;;4876496;29;20112;-81
2022/02/02 18:23:25;;;;;;;17.27;8.13;;;154.50;2252.80;;;;;;4876583;29;20044;-76
2022/02/02 18:35:54;;;;;;;;;;;154.40;2252.80;;;;;;4876968;29;20062;-76
2022/02/02 18:49:50;;;;;;;23.48;10.82;;;179.20;2252.80;;;;;;4907429;29;20017;-83
2022/02/02 19:02:51;;;;;;;20.75;9.57;;;154.30;2252.80;;;;;;4857016;29;20044;-82
2022/02/02 19:05:30;;;;;;;23.90;9.52;;;154.40;2252.80;;;;;;4856186;29;20098;-77
2022/02/02 19:52:16;;;;;;;12.20;4.75;;;153.90;2252.80;;;;;;4910586;29;20129;-76
2022/02/02 20:02:11;;;;;;;12.23;5.15;;;153.70;2252.80;;;;;;4910436;29;20035;-77
2022/02/02 20:04:51;;;;;;;10.82;4.75;;;153.70;2252.80;;;;;;4912396;29;20080;-76
2022/02/02 20:12:23;;;;;;;10.65;3.90;;;153.60;2252.80;;;;;;4909915;29;20040;-81
2022/02/02 20:14:48;;;;;;;9.27;3.78;;;153.60;2252.80;;;;;;4907540;29;20466;-79
2022/02/02 20:17:17;;;;;;;;;;;153.60;2252.80;;;;;;4908739;29;20035;-81
2022/02/02 20:19:47;;;;;;;12.65;5.50;;;128.90;2252.80;;;;;;4891145;29;19908;-77
2022/02/02 20:22:15;;;;;;;9.70;4.07;;;153.60;2252.80;;;;;;4910230;29;20012;-77
2022/02/02 20:24:50;;;;;;;8.15;4.40;;;128.90;2252.80;;;;;;4890885;29;20111;-78
2022/02/02 20:27:16;;;;;;;8.82;3.47;;;128.80;2252.80;;;;;;4910398;29;20012;-81
2022/02/02 20:29:42;;;;;;;;;;;128.90;2252.80;;;;;;4909286;29;20474;-80
2022/02/02 20:32:08;;;;;;;11.73;3.38;;;128.90;2252.80;;;;;;4891073;29;19907;-81
2022/02/02 20:34:34;;;;;;;;;;;128.90;2252.80;;;;;;4908328;29;20028;-75
2022/02/02 20:36:59;;;;;;;6.35;3.45;;;153.60;2252.80;;;;;;4910008;29;20504;-81
2022/02/02 20:39:47;;;;;;;;;;;128.90;2252.80;;;;;;4907646;29;20053;-75
2022/02/02 20:42:14;;;;;;;11.68;4.13;;;128.80;2252.80;;;;;;4909408;29;19911;-82
2022/02/02 20:44:57;;;;;;;9.07;4.13;;;128.80;2252.80;;;;;;4892232;29;20111;-82
2022/02/02 21:13:38;;;;;;;18.02;5.97;;;128.50;2252.80;;;;;;4877054;29;20102;-79
2022/02/02 21:14:44;;;;;;;12.90;5.65;;;128.60;2252.80;;;;;;4876853;29;20044;-78
2022/02/02 21:17:21;;;;;;;8.68;4.40;;;128.70;2252.80;;;;;;4884718;29;20396;-79
2022/02/02 21:20:09;;;;;;;11.60;5.60;;;128.60;2252.80;;;;;;4881889;29;20375;-79
2022/02/02 21:22:46;;;;;;;11.10;5.60;;;128.40;2252.80;;;;;;4877828;29;20169;-75
2022/02/02 21:27:58;;;;;;;13.57;6.77;;;128.70;2252.80;;;;;;4840333;29;20034;-81
2022/02/02 21:30:25;;;;;;;11.95;5.32;;;128.60;2252.80;;;;;;4840829;29;20054;-76
2022/02/02 21:32:51;;;;;;;11.40;5.55;;;128.50;2252.80;;;;;;4825548;29;20175;-81
2022/02/02 21:35:17;;;;;;;;;;;128.50;2252.80;;;;;;4840780;29;20026;-81
2022/02/02 21:37:46;;;;;;;13.50;6.13;;;128.60;2252.80;;;;;;4825063;29;20647;-80
2022/02/02 21:40:25;;;;;;;21.42;8.35;;;128.50;2252.80;;;;;;4847408;29;20052;-75
2022/02/02 21:42:52;;;;;;;30.63;13.05;;;128.50;2252.80;;;;;;4857618;29;20021;-81
2022/02/02 21:45:18;;;;;;;17.50;8.20;;;128.60;2252.80;;;;;;4858534;29;20048;-76
2022/02/02 21:47:45;;;;;;;18.55;8.38;;;128.50;2252.80;;;;;;4858760;29;20041;-76
2022/02/02 21:50:16;;;;;;;15.75;6.47;;;128.60;2252.80;;;;;;4858695;29;20034;-75
2022/02/02 21:52:41;;;;;;;19.35;5.40;;;128.40;2252.80;;;;;;4856653;29;20047;-80
2022/02/02 21:55:07;;;;;;;;;;;128.50;2252.80;;;;;;4858023;29;20402;-79
2022/02/02 21:57:34;;;;;;;10.90;4.57;;;128.50;2252.80;;;;;;4857621;29;19912;-76
2022/02/02 22:00:01;;;;;;;18.80;5.07;;;128.50;2252.80;;;;;;4849800;29;20072;-75
2022/02/02 22:02:28;;;;;;;11.65;4.65;;;128.40;2252.80;;;;;;4866409;29;20499;-76
2022/02/02 22:04:54;;;;;;;14.35;4.43;;;128.40;2252.80;;;;;;4880968;29;20120;-79
2022/02/02 22:07:19;;;;;;;;;;;128.40;2252.80;;;;;;4908591;29;20115;-77
2022/02/02 22:09:48;;;;;;;8.15;3.95;;;128.30;2252.80;;;;;;4906096;29;19930;-78
2022/02/02 22:12:14;;;;;;;8.80;3.67;;;128.20;2252.80;;;;;;4909577;29;20048;-75
2022/02/02 22:14:40;;;;;;;;;;;128.20;2252.80;;;;;;4905675;29;20024;-76
2022/02/02 22:17:06;;;;;;;11.60;4.65;;;128.20;2252.80;;;;;;4898500;29;19914;-77
2022/02/02 22:19:34;;;;;;;;;;;128.20;2252.80;;;;;;4890563;29;20024;-77
2022/02/02 22:22:00;;;;;;;19.67;7.15;;;128.10;2252.80;;;;;;4907512;29;19907;-76
2022/02/02 22:24:26;;;;;;;;;;;128.10;2252.80;;;;;;4907670;29;20499;-77
2022/02/02 22:26:51;;;;;;;15.25;5.80;;;128.10;2252.80;;;;;;4907728;29;19942;-77
2022/02/02 22:29:17;;;;;;;;;;;128.10;2252.80;;;;;;4906195;29;20048;-77
2022/02/02 22:31:43;;;;;;;11.57;4.80;;;128.10;2252.80;;;;;;4888426;29;19911;-78
2022/02/02 22:34:08;;;;;;;;;;;128.00;2252.80;;;;;;4885466;29;20025;-77
2022/02/02 22:36:34;;;;;;;15.88;4.82;;;128.00;2252.80;;;;;;4896510;29;20002;-76
2022/02/02 22:39:00;;;;;;;13.00;5.15;;;128.20;2252.80;;;;;;4896884;29;20132;-78
2022/02/02 22:41:25;;;;;;;;;;;128.10;2252.80;;;;;;4880924;29;20036;-76
2022/02/02 22:43:53;;;;;;;15.88;6.53;;;128.00;2252.80;;;;;;4897131;29;19907;-78
2022/02/02 22:46:25;;;;;;;13.43;6.57;;;128.10;2252.80;;;;;;4897319;29;20079;-78
2022/02/02 22:48:51;;;;;;;12.65;6.65;;;128.10;2252.80;;;;;;4880599;29;20033;-76
2022/02/02 22:51:16;;;;;;;;;;;128.20;2252.80;;;;;;4880871;29;20025;-77
2022/02/02 22:53:42;;;;;;;11.35;5.50;;;128.30;2252.80;;;;;;4897254;29;20371;-78
2022/02/02 22:56:08;;;;;;;;;;;128.30;2252.80;;;;;;4880300;29;20044;-76
2022/02/02 22:58:33;;;;;;;17.58;5.75;;;128.40;2252.80;;;;;;4897245;29;19915;-76
2022/02/02 23:00:59;;;;;;;;;;;128.20;2252.80;;;;;;4897979;29;20076;-77
2022/02/02 23:03:25;;;;;;;24.77;9.88;;;128.10;2252.80;;;;;;4896121;29;19950;-75
2022/02/02 23:05:58;;;;;;;21.08;7.85;;;128.30;2252.80;;;;;;4880290;29;20025;-77
2022/02/02 23:08:27;;;;;;;21.17;8.30;;;128.30;2252.80;;;;;;4900275;29;20032;-76
2022/02/02 23:10:53;;;;;;;24.05;9.20;;;128.30;2252.80;;;;;;4884149;29;20040;-79
2022/02/02 23:13:19;;;;;;;26.40;11.80;;;128.30;2252.80;;;;;;4900581;29;20104;-78
2022/02/02 23:18:18;;;;;;;;;;;128.30;2252.80;;;;;;4901171;29;20025;-77
2022/02/02 23:20:48;;;;;;;25.08;9.65;;;128.40;2252.80;;;;;;4900892;29;19912;-76
2022/02/02 23:23:19;;;;;;;25.02;11.35;;;128.30;2252.80;;;;;;4883699;29;20032;-75
2022/02/02 23:25:47;;;;;;;31.05;11.48;;;128.30;2252.80;;;;;;4883564;29;20044;-79
2022/02/02 23:28:17;;;;;;;28.90;12.80;;;128.40;2252.80;;;;;;4899408;29;20108;-79
2022/02/02 23:30:43;;;;;;;32.97;11.00;;;128.40;2252.80;;;;;;4883767;29;20071;-79
2022/02/02 23:33:09;;;;;;;19.83;8.70;;;128.40;2252.80;;;;;;4900504;29;20029;-78
2022/02/02 23:35:37;;;;;;;;;;;128.40;2252.80;;;;;;4900752;29;20057;-78
2022/02/02 23:38:03;;;;;;;14.05;6.15;;;128.40;2252.80;;;;;;4900150;29;19918;-78
2022/02/02 23:40:38;;;;;;;14.73;4.80;;;128.20;2252.80;;;;;;4900265;29;20044;-76
2022/02/02 23:43:04;;;;;;;10.82;4.38;;;128.00;2252.80;;;;;;4900764;29;20032;-77
2022/02/02 23:45:29;;;;;;;;;;;103.30;2227.20;;;;;;4893000;29;20438;-76
2022/02/02 23:47:58;;;;;;;13.40;4.25;;;103.30;2227.20;;;;;;4909568;29;19913;-79
2022/02/02 23:50:25;;;;;;;9.68;4.63;;;103.30;2227.20;;;;;;4909955;29;20397;-76
2022/02/02 23:52:55;;;;;;;16.45;6.53;;;103.30;2227.20;;;;;;4892080;29;20031;-77
2022/02/02 23:55:34;;;;;;;27.40;11.57;;;103.30;2227.20;;;;;;4907627;29;20099;-78
2022/02/02 23:58:19;;;;;;;25.17;10.77;;;103.30;2227.20;;;;;;4907460;29;20029;-78
